Aérodrome :
LOGIN :

S'inscrire | Disclaimer

   EN    FR    IT 

 










Légende :    VFR   VFR Marginal   IFR   IFR Intensif   IFR Très Intensif
Visi : 
Plafond : 
>= 8 km
>= 3000ft
5 à 8 km
1000 à 3000 ft
1500m à 5 km
500 à 1000 ft
800 à 1500m
200 à 500 ft
< 800m
< 200 ft
Symboles :   Orages  Brouillard  Fortes neiges  Fortes précipitations  Vent > 20 kt
SIGMETs :   Divers  Orages  Givrage  Turbulence  Onde Orograph.  Cendres Volcan.







- Altitude de l'aérodrome : 184 ft
- Code IATA : BRU


EBBR - Bruxelles

DERNIER METAR :
  • 230650Z 22004KT 5000 BR BKN030 08/06 Q1029 BECMG 8000 NSW

METARs EXPIRÉS :
  • 230620Z 30001KT 4000 BR BKN024 08/06 Q1029 TEMPO 2500 BR
  • 230550Z 30005KT 5000 BR BKN020 08/06 Q1029 TEMPO 2500 BR
  • 230520Z 29005KT 5000 BR BKN020 08/06 Q1029 TEMPO 2500 BR
  • 230450Z 26004KT 6000 BKN020 08/06 Q1029 NOSIG
  • 230420Z 27004KT 6000 BKN020 08/06 Q1029 NOSIG

TAF TAF EBBR
Valide du 23 à 06h jusqu'au 24 à 12h UTC


230500Z 2306/2412 33004KT 6000 BR SCT003 BKN008
PROB30
TEMPO 2306/2309 3000 BKN003
BECMG 2308/2310 8000 NSW SCT008 BKN016
PROB40
TEMPO 2316/2320 2500 -DZ BR SCT003 BKN007
Pas de NOTAMs connus pour ce terrain.



MET'MAP, la Météo Aéronautique d'un coup d'oeil ! - Copyright ORBIFLY Décembre 2007 - Disclaimer

ORBIFLY MET'MAP TEAM :

Programmation & Développement : Alexandra Zaïnal
Conception & Développement : Baudouin d'Aumeries
Co-Programmation & Développement : Marc-Olivier Méhu
Soutien technique & logistique : Manuel Goepfert

Contact : metmap@orbifly.com




SOURCES & CREDITS :

   NOAA